sensor_id;sensor_type;location;lat;lon;timestamp;pressure;altitude;pressure_sealevel;temperature;humidity
7614;BME280;3848;42.016;23.098;2022-10-30T00:00:27;97935.03;;;9.24;100.00
7614;BME280;3848;42.016;23.098;2022-10-30T00:02:54;97936.72;;;9.22;100.00
7614;BME280;3848;42.016;23.098;2022-10-30T00:05:20;97931.59;;;9.17;100.00
7614;BME280;3848;42.016;23.098;2022-10-30T00:07:47;97939.28;;;9.23;100.00
7614;BME280;3848;42.016;23.098;2022-10-30T00:10:15;97946.03;;;9.23;100.00
7614;BME280;3848;42.016;23.098;2022-10-30T00:12:44;97940.81;;;9.12;100.00
7614;BME280;3848;42.016;23.098;2022-10-30T00:15:11;97947.53;;;9.05;100.00
7614;BME280;3848;42.016;23.098;2022-10-30T00:17:38;97942.44;;;9.02;100.00
7614;BME280;3848;42.016;23.098;2022-10-30T00:20:06;97945.81;;;9.04;100.00
7614;BME280;3848;42.016;23.098;2022-10-30T00:22:34;97945.84;;;9.06;100.00
7614;BME280;3848;42.016;23.098;2022-10-30T00:25:01;97921.09;;;8.85;100.00
7614;BME280;3848;42.016;23.098;2022-10-30T00:27:28;97949.16;;;8.99;100.00
7614;BME280;3848;42.016;23.098;2022-10-30T00:29:56;97946.53;;;8.94;100.00
7614;BME280;3848;42.016;23.098;2022-10-30T00:32:23;97941.31;;;8.80;100.00
7614;BME280;3848;42.016;23.098;2022-10-30T00:34:49;97949.66;;;8.72;100.00
7614;BME280;3848;42.016;23.098;2022-10-30T00:37:16;97952.00;;;8.57;100.00
7614;BME280;3848;42.016;23.098;2022-10-30T00:39:43;97944.19;;;8.41;100.00
7614;BME280;3848;42.016;23.098;2022-10-30T00:42:11;97942.28;;;8.28;100.00
7614;BME280;3848;42.016;23.098;2022-10-30T00:44:43;97931.16;;;8.17;100.00
7614;BME280;3848;42.016;23.098;2022-10-30T00:47:17;97919.25;;;8.11;100.00
7614;BME280;3848;42.016;23.098;2022-10-30T00:49:55;97929.47;;;8.16;100.00
7614;BME280;3848;42.016;23.098;2022-10-30T00:52:25;97930.38;;;8.21;100.00
7614;BME280;3848;42.016;23.098;2022-10-30T00:54:54;97928.63;;;8.17;100.00
7614;BME280;3848;42.016;23.098;2022-10-30T00:57:22;97930.22;;;8.12;100.00
7614;BME280;3848;42.016;23.098;2022-10-30T00:59:50;97929.25;;;8.02;100.00
7614;BME280;3848;42.016;23.098;2022-10-30T01:02:20;97929.13;;;7.93;100.00
7614;BME280;3848;42.016;23.098;2022-10-30T01:04:49;97921.53;;;7.93;100.00
7614;BME280;3848;42.016;23.098;2022-10-30T01:07:16;97917.19;;;7.86;100.00
7614;BME280;3848;42.016;23.098;2022-10-30T01:09:45;97917.19;;;7.84;100.00
7614;BME280;3848;42.016;23.098;2022-10-30T01:12:12;97910.41;;;7.83;100.00
7614;BME280;3848;42.016;23.098;2022-10-30T01:14:43;97909.59;;;7.84;100.00
7614;BME280;3848;42.016;23.098;2022-10-30T01:17:29;97903.69;;;7.84;100.00
7614;BME280;3848;42.016;23.098;2022-10-30T01:20:10;97912.34;;;8.00;100.00
7614;BME280;3848;42.016;23.098;2022-10-30T01:22:51;97909.84;;;8.01;100.00
7614;BME280;3848;42.016;23.098;2022-10-30T01:25:41;97914.72;;;7.90;100.00
7614;BME280;3848;42.016;23.098;2022-10-30T01:28:30;97906.19;;;7.82;100.00
7614;BME280;3848;42.016;23.098;2022-10-30T01:31:12;97892.66;;;7.80;100.00
7614;BME280;3848;42.016;23.098;2022-10-30T01:33:54;97887.59;;;7.80;100.00
7614;BME280;3848;42.016;23.098;2022-10-30T01:36:29;97900.47;;;7.94;100.00
7614;BME280;3848;42.016;23.098;2022-10-30T01:39:00;97897.91;;;7.92;100.00
7614;BME280;3848;42.016;23.098;2022-10-30T01:41:28;97900.44;;;7.92;100.00
7614;BME280;3848;42.016;23.098;2022-10-30T01:43:57;97888.53;;;7.87;100.00
7614;BME280;3848;42.016;23.098;2022-10-30T01:46:41;97892.88;;;7.94;100.00
7614;BME280;3848;42.016;23.098;2022-10-30T01:49:42;97896.25;;;7.93;100.00
7614;BME280;3848;42.016;23.098;2022-10-30T01:52:17;97894.44;;;7.87;100.00
7614;BME280;3848;42.016;23.098;2022-10-30T01:54:51;97890.97;;;7.79;100.00
7614;BME280;3848;42.016;23.098;2022-10-30T01:57:29;97892.50;;;7.70;100.00
7614;BME280;3848;42.016;23.098;2022-10-30T02:00:03;97888.22;;;7.65;100.00
7614;BME280;3848;42.016;23.098;2022-10-30T02:02:31;97888.22;;;7.67;100.00
7614;BME280;3848;42.016;23.098;2022-10-30T02:05:00;97827.66;;;7.20;100.00
7614;BME280;3848;42.016;23.098;2022-10-30T02:07:27;97881.03;;;7.39;100.00
7614;BME280;3848;42.016;23.098;2022-10-30T02:09:54;97877.47;;;7.27;100.00
7614;BME280;3848;42.016;23.098;2022-10-30T02:12:22;97879.84;;;7.18;100.00
7614;BME280;3848;42.016;23.098;2022-10-30T02:14:52;97884.09;;;7.19;100.00
7614;BME280;3848;42.016;23.098;2022-10-30T02:17:20;97871.34;;;7.13;100.00
7614;BME280;3848;42.016;23.098;2022-10-30T02:19:47;97871.31;;;7.10;100.00
7614;BME280;3848;42.016;23.098;2022-10-30T02:22:16;97879.84;;;7.17;100.00
7614;BME280;3848;42.016;23.098;2022-10-30T02:24:43;97878.09;;;7.14;100.00
7614;BME280;3848;42.016;23.098;2022-10-30T02:27:10;97856.75;;;6.97;100.00
7614;BME280;3848;42.016;23.098;2022-10-30T02:29:37;97863.41;;;6.93;100.00
7614;BME280;3848;42.016;23.098;2022-10-30T02:32:03;97870.09;;;6.90;100.00
7614;BME280;3848;42.016;23.098;2022-10-30T02:34:30;97881.00;;;6.87;100.00
7614;BME280;3848;42.016;23.098;2022-10-30T02:36:57;97882.59;;;6.84;100.00
7614;BME280;3848;42.016;23.098;2022-10-30T02:39:25;97890.13;;;6.82;100.00
7614;BME280;3848;42.016;23.098;2022-10-30T02:41:52;97889.34;;;6.85;100.00
7614;BME280;3848;42.016;23.098;2022-10-30T02:44:19;97889.31;;;6.83;100.00
7614;BME280;3848;42.016;23.098;2022-10-30T02:46:45;97896.28;;;6.95;100.00
7614;BME280;3848;42.016;23.098;2022-10-30T02:49:12;97884.53;;;6.97;100.00
7614;BME280;3848;42.016;23.098;2022-10-30T02:51:39;97890.34;;;6.91;100.00
7614;BME280;3848;42.016;23.098;2022-10-30T02:54:06;97890.16;;;6.84;100.00
7614;BME280;3848;42.016;23.098;2022-10-30T02:56:34;97895.13;;;6.79;100.00
7614;BME280;3848;42.016;23.098;2022-10-30T02:59:01;97896.69;;;6.72;100.00
7614;BME280;3848;42.016;23.098;2022-10-30T03:01:28;97891.56;;;6.68;100.00
7614;BME280;3848;42.016;23.098;2022-10-30T03:03:54;97899.13;;;6.66;100.00
7614;BME280;3848;42.016;23.098;2022-10-30T03:06:21;97849.69;;;6.35;100.00
7614;BME280;3848;42.016;23.098;2022-10-30T03:08:48;97887.06;;;6.53;100.00
7614;BME280;3848;42.016;23.098;2022-10-30T03:11:16;97869.94;;;6.40;100.00
7614;BME280;3848;42.016;23.098;2022-10-30T03:13:46;97900.44;;;6.49;100.00
7614;BME280;3848;42.016;23.098;2022-10-30T03:16:15;97900.31;;;6.43;100.00
7614;BME280;3848;42.016;23.098;2022-10-30T03:18:43;97890.84;;;6.33;100.00
7614;BME280;3848;42.016;23.098;2022-10-30T03:21:11;97896.81;;;6.36;100.00
7614;BME280;3848;42.016;23.098;2022-10-30T03:23:38;97902.69;;;6.35;100.00
7614;BME280;3848;42.016;23.098;2022-10-30T03:26:06;97903.47;;;6.33;100.00
7614;BME280;3848;42.016;23.098;2022-10-30T03:28:33;97902.63;;;6.32;100.00
7614;BME280;3848;42.016;23.098;2022-10-30T03:31:02;97901.84;;;6.35;100.00
7614;BME280;3848;42.016;23.098;2022-10-30T03:33:30;97901.06;;;6.39;100.00
7614;BME280;3848;42.016;23.098;2022-10-30T03:35:57;97889.25;;;6.36;100.00
7614;BME280;3848;42.016;23.098;2022-10-30T03:38:24;97912.19;;;6.47;100.00
7614;BME280;3848;42.016;23.098;2022-10-30T03:40:51;97910.56;;;6.49;100.00
7614;BME280;3848;42.016;23.098;2022-10-30T03:43:20;97908.03;;;6.49;100.00
7614;BME280;3848;42.016;23.098;2022-10-30T03:45:47;97905.50;;;6.49;100.00
7614;BME280;3848;42.016;23.098;2022-10-30T03:48:17;97919.00;;;6.51;100.00
7614;BME280;3848;42.016;23.098;2022-10-30T03:50:44;97917.38;;;6.55;100.00
7614;BME280;3848;42.016;23.098;2022-10-30T03:53:11;97909.75;;;6.52;100.00
7614;BME280;3848;42.016;23.098;2022-10-30T03:55:39;97901.38;;;6.54;100.00
7614;BME280;3848;42.016;23.098;2022-10-30T03:58:06;97899.88;;;6.64;100.00
7614;BME280;3848;42.016;23.098;2022-10-30T04:00:34;97910.13;;;6.70;100.00
7614;BME280;3848;42.016;23.098;2022-10-30T04:03:04;97908.47;;;6.72;100.00
7614;BME280;3848;42.016;23.098;2022-10-30T04:05:33;97903.41;;;6.70;100.00
7614;BME280;3848;42.016;23.098;2022-10-30T04:08:02;97897.38;;;6.65;100.00
7614;BME280;3848;42.016;23.098;2022-10-30T04:10:30;97907.50;;;6.65;100.00
7614;BME280;3848;42.016;23.098;2022-10-30T04:12:59;97898.91;;;6.57;100.00
7614;BME280;3848;42.016;23.098;2022-10-30T04:15:26;97908.22;;;6.60;100.00
7614;BME280;3848;42.016;23.098;2022-10-30T04:17:53;97919.06;;;6.54;100.00
7614;BME280;3848;42.016;23.098;2022-10-30T04:20:21;97917.03;;;6.38;100.00
7614;BME280;3848;42.016;23.098;2022-10-30T04:22:54;97898.22;;;6.24;100.00
7614;BME280;3848;42.016;23.098;2022-10-30T04:25:21;97905.53;;;6.11;100.00
7614;BME280;3848;42.016;23.098;2022-10-30T04:27:48;97921.53;;;6.12;100.00
7614;BME280;3848;42.016;23.098;2022-10-30T04:30:17;97904.47;;;6.02;100.00
7614;BME280;3848;42.016;23.098;2022-10-30T04:32:46;97912.81;;;5.99;100.00
7614;BME280;3848;42.016;23.098;2022-10-30T04:35:13;97917.81;;;5.96;100.00
7614;BME280;3848;42.016;23.098;2022-10-30T04:37:40;97913.56;;;5.95;100.00
7614;BME280;3848;42.016;23.098;2022-10-30T04:40:09;97913.41;;;5.89;100.00
7614;BME280;3848;42.016;23.098;2022-10-30T04:42:36;97916.59;;;5.82;100.00
7614;BME280;3848;42.016;23.098;2022-10-30T04:45:03;97908.94;;;5.77;100.00
7614;BME280;3848;42.016;23.098;2022-10-30T04:47:30;97920.69;;;5.77;100.00
7614;BME280;3848;42.016;23.098;2022-10-30T04:49:57;97920.75;;;5.80;100.00
7614;BME280;3848;42.016;23.098;2022-10-30T04:52:24;97918.34;;;5.85;100.00
7614;BME280;3848;42.016;23.098;2022-10-30T04:54:50;97914.03;;;5.80;100.00
7614;BME280;3848;42.016;23.098;2022-10-30T04:57:19;97920.59;;;5.72;100.00
7614;BME280;3848;42.016;23.098;2022-10-30T04:59:45;97922.25;;;5.72;100.00
7614;BME280;3848;42.016;23.098;2022-10-30T05:02:12;97916.25;;;5.67;100.00
7614;BME280;3848;42.016;23.098;2022-10-30T05:04:39;97925.31;;;5.60;100.00
7614;BME280;3848;42.016;23.098;2022-10-30T05:07:06;97930.16;;;5.51;100.00
7614;BME280;3848;42.016;23.098;2022-10-30T05:09:33;97924.97;;;5.45;100.00
7614;BME280;3848;42.016;23.098;2022-10-30T05:11:59;97921.72;;;5.50;100.00
7614;BME280;3848;42.016;23.098;2022-10-30T05:14:29;97915.88;;;5.51;100.00
7614;BME280;3848;42.016;23.098;2022-10-30T05:16:56;97919.53;;;5.63;100.00
7614;BME280;3848;42.016;23.098;2022-10-30T05:19:23;97925.53;;;5.68;100.00
7614;BME280;3848;42.016;23.098;2022-10-30T05:21:50;97919.53;;;5.63;100.00
7614;BME280;3848;42.016;23.098;2022-10-30T05:24:17;97905.88;;;5.55;100.00
7614;BME280;3848;42.016;23.098;2022-10-30T05:26:44;97921.28;;;5.67;100.00
7614;BME280;3848;42.016;23.098;2022-10-30T05:29:11;97932.47;;;5.78;100.00
7614;BME280;3848;42.016;23.098;2022-10-30T05:31:39;97934.03;;;5.73;100.00
7614;BME280;3848;42.016;23.098;2022-10-30T05:34:06;97939.88;;;5.70;100.00
7614;BME280;3848;42.016;23.098;2022-10-30T05:36:33;97929.72;;;5.67;100.00
7614;BME280;3848;42.016;23.098;2022-10-30T05:38:59;97934.75;;;5.67;100.00
7614;BME280;3848;42.016;23.098;2022-10-30T05:41:27;97933.72;;;5.61;100.00
7614;BME280;3848;42.016;23.098;2022-10-30T05:43:54;97939.78;;;5.67;100.00
7614;BME280;3848;42.016;23.098;2022-10-30T05:46:21;97943.31;;;5.74;100.00
7614;BME280;3848;42.016;23.098;2022-10-30T05:48:49;97943.41;;;5.78;100.00
7614;BME280;3848;42.016;23.098;2022-10-30T05:51:16;97939.94;;;5.73;100.00
7614;BME280;3848;42.016;23.098;2022-10-30T05:53:43;97924.66;;;5.67;100.00
7614;BME280;3848;42.016;23.098;2022-10-30T05:56:09;97942.56;;;5.78;100.00
7614;BME280;3848;42.016;23.098;2022-10-30T05:58:36;97947.81;;;5.86;100.00
7614;BME280;3848;42.016;23.098;2022-10-30T06:01:05;97911.22;;;5.67;100.00
7614;BME280;3848;42.016;23.098;2022-10-30T06:03:32;97947.28;;;5.99;100.00
7614;BME280;3848;42.016;23.098;2022-10-30T06:06:00;97944.97;;;6.06;100.00
7614;BME280;3848;42.016;23.098;2022-10-30T06:08:27;97950.94;;;6.11;100.00
7614;BME280;3848;42.016;23.098;2022-10-30T06:10:53;97942.53;;;6.11;100.00
7614;BME280;3848;42.016;23.098;2022-10-30T06:13:20;97948.56;;;6.18;100.00
7614;BME280;3848;42.016;23.098;2022-10-30T06:15:47;97946.97;;;6.23;100.00
7614;BME280;3848;42.016;23.098;2022-10-30T06:18:14;97944.47;;;6.23;100.00
7614;BME280;3848;42.016;23.098;2022-10-30T06:20:41;97945.38;;;6.25;100.00
7614;BME280;3848;42.016;23.098;2022-10-30T06:23:09;97945.50;;;6.31;100.00
7614;BME280;3848;42.016;23.098;2022-10-30T06:25:36;97949.81;;;6.36;100.00
7614;BME280;3848;42.016;23.098;2022-10-30T06:28:04;97951.66;;;6.45;100.00
7614;BME280;3848;42.016;23.098;2022-10-30T06:30:31;97945.94;;;6.51;100.00
7614;BME280;3848;42.016;23.098;2022-10-30T06:32:58;97928.09;;;6.45;100.00
7614;BME280;3848;42.016;23.098;2022-10-30T06:35:26;97946.13;;;6.61;100.00
7614;BME280;3848;42.016;23.098;2022-10-30T06:37:53;97946.28;;;6.67;100.00
7614;BME280;3848;42.016;23.098;2022-10-30T06:40:22;97943.84;;;6.72;100.00
7614;BME280;3848;42.016;23.098;2022-10-30T06:42:50;97947.41;;;6.83;100.00
7614;BME280;3848;42.016;23.098;2022-10-30T06:45:19;97934.94;;;6.91;100.00
7614;BME280;3848;42.016;23.098;2022-10-30T06:47:46;97938.56;;;7.05;100.00
7614;BME280;3848;42.016;23.098;2022-10-30T06:50:14;97938.72;;;7.13;100.00
7614;BME280;3848;42.016;23.098;2022-10-30T06:52:41;97933.88;;;7.25;100.00
7614;BME280;3848;42.016;23.098;2022-10-30T06:55:09;97873.66;;;7.01;100.00
7614;BME280;3848;42.016;23.098;2022-10-30T06:57:38;97919.03;;;7.43;100.00
7614;BME280;3848;42.016;23.098;2022-10-30T07:00:06;97925.19;;;7.57;100.00
7614;BME280;3848;42.016;23.098;2022-10-30T07:02:33;97923.75;;;7.72;100.00
7614;BME280;3848;42.016;23.098;2022-10-30T07:05:00;97920.56;;;7.86;100.00
7614;BME280;3848;42.016;23.098;2022-10-30T07:07:28;97922.47;;;8.00;100.00
7614;BME280;3848;42.016;23.098;2022-10-30T07:09:54;97923.53;;;8.14;100.00
7614;BME280;3848;42.016;23.098;2022-10-30T07:12:21;97920.28;;;8.24;100.00
7614;BME280;3848;42.016;23.098;2022-10-30T07:14:49;97919.63;;;8.34;100.00
7614;BME280;3848;42.016;23.098;2022-10-30T07:17:16;97920.59;;;8.45;100.00
7614;BME280;3848;42.016;23.098;2022-10-30T07:19:43;97915.75;;;8.61;100.00
7614;BME280;3848;42.016;23.098;2022-10-30T07:22:09;97914.94;;;8.65;100.00
7614;BME280;3848;42.016;23.098;2022-10-30T07:24:36;97910.81;;;8.73;100.00
7614;BME280;3848;42.016;23.098;2022-10-30T07:27:03;97906.69;;;8.81;100.00
7614;BME280;3848;42.016;23.098;2022-10-30T07:29:30;97910.13;;;8.86;100.00
7614;BME280;3848;42.016;23.098;2022-10-30T07:31:58;97909.38;;;8.95;100.00
7614;BME280;3848;42.016;23.098;2022-10-30T07:34:25;97894.31;;;9.08;100.00
7614;BME280;3848;42.016;23.098;2022-10-30T07:36:51;97896.97;;;9.19;100.00
7614;BME280;3848;42.016;23.098;2022-10-30T07:39:18;97897.81;;;9.20;100.00
7614;BME280;3848;42.016;23.098;2022-10-30T07:41:47;97890.28;;;9.29;100.00
7614;BME280;3848;42.016;23.098;2022-10-30T07:44:14;97887.06;;;9.48;100.00
7614;BME280;3848;42.016;23.098;2022-10-30T07:46:40;97883.81;;;9.60;100.00
7614;BME280;3848;42.016;23.098;2022-10-30T07:49:09;97877.94;;;9.68;100.00
7614;BME280;3848;42.016;23.098;2022-10-30T07:51:35;97877.13;;;9.74;100.00
7614;BME280;3848;42.016;23.098;2022-10-30T07:54:02;97881.41;;;9.80;100.00
7614;BME280;3848;42.016;23.098;2022-10-30T07:56:29;97878.13;;;9.96;100.00
7614;BME280;3848;42.016;23.098;2022-10-30T07:58:56;97832.38;;;9.88;100.00
7614;BME280;3848;42.016;23.098;2022-10-30T08:01:23;97858.03;;;10.32;100.00
7614;BME280;3848;42.016;23.098;2022-10-30T08:03:49;97854.72;;;10.46;100.00
7614;BME280;3848;42.016;23.098;2022-10-30T08:06:17;97856.44;;;10.59;100.00
7614;BME280;3848;42.016;23.098;2022-10-30T08:08:44;97848.03;;;10.71;100.00
7614;BME280;3848;42.016;23.098;2022-10-30T08:11:11;97841.31;;;10.83;100.00
7614;BME280;3848;42.016;23.098;2022-10-30T08:13:38;97844.72;;;11.04;100.00
7614;BME280;3848;42.016;23.098;2022-10-30T08:16:05;97847.28;;;11.20;100.00
7614;BME280;3848;42.016;23.098;2022-10-30T08:18:32;97837.09;;;11.39;100.00
7614;BME280;3848;42.016;23.098;2022-10-30T08:20:59;97834.56;;;11.58;100.00
7614;BME280;3848;42.016;23.098;2022-10-30T08:23:27;97830.31;;;11.74;100.00
7614;BME280;3848;42.016;23.098;2022-10-30T08:25:56;97827.78;;;11.88;100.00
7614;BME280;3848;42.016;23.098;2022-10-30T08:28:24;97821.81;;;11.97;100.00
7614;BME280;3848;42.016;23.098;2022-10-30T08:30:51;97820.06;;;12.14;100.00
7614;BME280;3848;42.016;23.098;2022-10-30T08:33:18;97822.53;;;12.34;100.00
7614;BME280;3848;42.016;23.098;2022-10-30T08:35:48;97812.28;;;12.52;100.00
7614;BME280;3848;42.016;23.098;2022-10-30T08:38:16;97818.13;;;12.72;100.00
7614;BME280;3848;42.016;23.098;2022-10-30T08:40:44;97818.03;;;12.83;100.00
7614;BME280;3848;42.016;23.098;2022-10-30T08:43:11;97818.00;;;12.92;100.00
7614;BME280;3848;42.016;23.098;2022-10-30T08:45:38;97819.63;;;13.04;100.00
7614;BME280;3848;42.016;23.098;2022-10-30T08:48:06;97815.31;;;13.09;100.00
7614;BME280;3848;42.016;23.098;2022-10-30T08:50:33;97813.50;;;13.29;100.00
7614;BME280;3848;42.016;23.098;2022-10-30T08:53:01;97814.28;;;13.39;100.00
7614;BME280;3848;42.016;23.098;2022-10-30T08:55:29;97818.41;;;13.57;100.00
7614;BME280;3848;42.016;23.098;2022-10-30T08:57:57;97811.41;;;13.77;100.00
7614;BME280;3848;42.016;23.098;2022-10-30T09:00:24;97801.81;;;13.97;100.00
7614;BME280;3848;42.016;23.098;2022-10-30T09:02:51;97787.13;;;14.15;100.00
7614;BME280;3848;42.016;23.098;2022-10-30T09:05:19;97784.06;;;14.59;100.00
7614;BME280;3848;42.016;23.098;2022-10-30T09:07:46;97771.59;;;14.94;96.96
7614;BME280;3848;42.016;23.098;2022-10-30T09:10:13;97777.81;;;15.84;89.42
7614;BME280;3848;42.016;23.098;2022-10-30T09:12:41;97776.78;;;17.14;82.12
7614;BME280;3848;42.016;23.098;2022-10-30T09:15:10;97732.66;;;17.98;66.44
7614;BME280;3848;42.016;23.098;2022-10-30T09:17:37;97602.28;;;17.73;61.72
7614;BME280;3848;42.016;23.098;2022-10-30T09:20:04;97719.84;;;19.10;61.36
7614;BME280;3848;42.016;23.098;2022-10-30T09:22:31;97650.16;;;18.88;56.88
7614;BME280;3848;42.016;23.098;2022-10-30T09:24:58;97721.84;;;19.78;56.08
7614;BME280;3848;42.016;23.098;2022-10-30T09:27:25;97732.56;;;20.38;55.63
7614;BME280;3848;42.016;23.098;2022-10-30T09:29:52;97735.63;;;20.26;53.06
7614;BME280;3848;42.016;23.098;2022-10-30T09:32:20;97710.00;;;19.96;53.89
7614;BME280;3848;42.016;23.098;2022-10-30T09:34:47;97720.25;;;20.46;53.68
7614;BME280;3848;42.016;23.098;2022-10-30T09:37:14;97720.31;;;20.88;51.72
7614;BME280;3848;42.016;23.098;2022-10-30T09:39:40;97708.00;;;21.15;50.65
7614;BME280;3848;42.016;23.098;2022-10-30T09:42:43;97699.41;;;21.57;51.55
7614;BME280;3848;42.016;23.098;2022-10-30T09:48:46;97692.38;;;21.79;49.28
7614;BME280;3848;42.016;23.098;2022-10-30T09:51:31;97685.31;;;22.22;48.63
7614;BME280;3848;42.016;23.098;2022-10-30T09:54:11;97673.63;;;22.68;47.13
7614;BME280;3848;42.016;23.098;2022-10-30T09:56:43;97660.28;;;22.59;46.67
7614;BME280;3848;42.016;23.098;2022-10-30T09:59:20;97663.81;;;22.75;46.60
7614;BME280;3848;42.016;23.098;2022-10-30T10:01:57;97658.50;;;23.30;45.88
7614;BME280;3848;42.016;23.098;2022-10-30T10:04:33;97659.16;;;23.51;46.96
7614;BME280;3848;42.016;23.098;2022-10-30T10:07:14;97648.84;;;23.84;44.36
7614;BME280;3848;42.016;23.098;2022-10-30T10:09:43;97643.59;;;24.01;44.38
7614;BME280;3848;42.016;23.098;2022-10-30T10:12:22;97626.84;;;24.22;44.20
7614;BME280;3848;42.016;23.098;2022-10-30T10:14:53;97639.72;;;24.55;43.41
7614;BME280;3848;42.016;23.098;2022-10-30T10:17:26;97633.38;;;24.45;43.11
7614;BME280;3848;42.016;23.098;2022-10-30T10:19:58;97631.22;;;24.38;43.63
7614;BME280;3848;42.016;23.098;2022-10-30T10:22:29;97628.59;;;24.06;42.95
7614;BME280;3848;42.016;23.098;2022-10-30T10:25:01;97609.78;;;23.69;43.59
7614;BME280;3848;42.016;23.098;2022-10-30T10:27:44;97621.06;;;24.33;44.25
7614;BME280;3848;42.016;23.098;2022-10-30T10:30:16;97609.06;;;24.46;42.83
7614;BME280;3848;42.016;23.098;2022-10-30T10:33:02;97609.09;;;24.30;43.86
7614;BME280;3848;42.016;23.098;2022-10-30T10:35:45;97606.25;;;24.95;42.16
7614;BME280;3848;42.016;23.098;2022-10-30T10:38:26;97595.22;;;25.21;41.29
7614;BME280;3848;42.016;23.098;2022-10-30T10:41:03;97589.06;;;25.51;41.36
7614;BME280;3848;42.016;23.098;2022-10-30T10:43:41;97585.81;;;25.62;40.67
7614;BME280;3848;42.016;23.098;2022-10-30T10:46:27;97581.44;;;25.91;41.00
7614;BME280;3848;42.016;23.098;2022-10-30T10:49:12;97548.50;;;25.90;40.02
7614;BME280;3848;42.016;23.098;2022-10-30T10:51:50;97534.66;;;26.16;39.25
7614;BME280;3848;42.016;23.098;2022-10-30T10:54:24;97576.09;;;26.33;39.88
7614;BME280;3848;42.016;23.098;2022-10-30T10:56:53;97557.53;;;26.65;39.46
7614;BME280;3848;42.016;23.098;2022-10-30T10:59:24;97549.88;;;26.89;39.02
7614;BME280;3848;42.016;23.098;2022-10-30T11:01:59;97539.88;;;26.95;38.07
7614;BME280;3848;42.016;23.098;2022-10-30T11:04:31;97549.38;;;27.34;37.82
7614;BME280;3848;42.016;23.098;2022-10-30T11:07:14;97542.72;;;27.30;37.33
7614;BME280;3848;42.016;23.098;2022-10-30T11:09:44;97536.69;;;26.65;37.70
7614;BME280;3848;42.016;23.098;2022-10-30T11:12:13;97536.63;;;26.66;38.13
7614;BME280;3848;42.016;23.098;2022-10-30T11:14:40;97538.28;;;26.67;37.32
7614;BME280;3848;42.016;23.098;2022-10-30T11:17:14;97534.63;;;26.70;37.91
7614;BME280;3848;42.016;23.098;2022-10-30T11:19:45;97521.84;;;26.40;37.91
7614;BME280;3848;42.016;23.098;2022-10-30T11:22:20;97532.31;;;26.53;39.09
7614;BME280;3848;42.016;23.098;2022-10-30T11:24:49;97515.41;;;26.58;37.34
7614;BME280;3848;42.016;23.098;2022-10-30T11:27:19;97470.34;;;26.04;37.49
7614;BME280;3848;42.016;23.098;2022-10-30T11:29:51;97515.72;;;26.54;37.89
7614;BME280;3848;42.016;23.098;2022-10-30T11:32:20;97509.34;;;26.45;37.60
7614;BME280;3848;42.016;23.098;2022-10-30T11:34:59;97487.56;;;26.59;37.59
7614;BME280;3848;42.016;23.098;2022-10-30T11:37:33;97496.84;;;26.50;37.66
7614;BME280;3848;42.016;23.098;2022-10-30T11:40:02;97480.69;;;26.45;37.41
7614;BME280;3848;42.016;23.098;2022-10-30T11:42:30;97494.34;;;26.61;37.84
7614;BME280;3848;42.016;23.098;2022-10-30T11:44:57;97486.75;;;26.84;37.31
7614;BME280;3848;42.016;23.098;2022-10-30T11:47:29;97468.81;;;26.92;36.92
7614;BME280;3848;42.016;23.098;2022-10-30T11:49:58;97476.09;;;27.25;36.62
7614;BME280;3848;42.016;23.098;2022-10-30T11:52:26;97472.44;;;27.27;36.00
7614;BME280;3848;42.016;23.098;2022-10-30T11:54:56;97463.59;;;27.17;36.13
7614;BME280;3848;42.016;23.098;2022-10-30T11:57:30;97467.97;;;27.29;36.14
7614;BME280;3848;42.016;23.098;2022-10-30T11:59:59;97453.16;;;27.04;36.91
7614;BME280;3848;42.016;23.098;2022-10-30T12:02:28;97452.53;;;26.63;36.38
7614;BME280;3848;42.016;23.098;2022-10-30T12:04:59;97449.75;;;26.26;37.27
7614;BME280;3848;42.016;23.098;2022-10-30T12:07:30;97440.69;;;25.92;37.85
7614;BME280;3848;42.016;23.098;2022-10-30T12:09:58;97443.72;;;25.86;37.98
7614;BME280;3848;42.016;23.098;2022-10-30T12:12:28;97441.00;;;25.46;38.36
7614;BME280;3848;42.016;23.098;2022-10-30T12:15:07;97432.59;;;24.86;39.26
7614;BME280;3848;42.016;23.098;2022-10-30T12:17:37;97430.25;;;24.53;39.64
7614;BME280;3848;42.016;23.098;2022-10-30T12:20:06;97427.66;;;24.39;40.70
7614;BME280;3848;42.016;23.098;2022-10-30T12:22:34;97428.44;;;24.09;41.22
7614;BME280;3848;42.016;23.098;2022-10-30T12:25:05;97420.22;;;23.87;41.26
7614;BME280;3848;42.016;23.098;2022-10-30T12:27:35;97420.03;;;23.60;41.52
7614;BME280;3848;42.016;23.098;2022-10-30T12:30:07;97365.47;;;23.14;43.16
7614;BME280;3848;42.016;23.098;2022-10-30T12:32:49;97427.28;;;23.22;42.26
7614;BME280;3848;42.016;23.098;2022-10-30T12:35:44;97419.13;;;22.96;42.39
7614;BME280;3848;42.016;23.098;2022-10-30T12:38:22;97422.13;;;22.89;43.26
7614;BME280;3848;42.016;23.098;2022-10-30T12:41:02;97409.63;;;22.79;43.16
7614;BME280;3848;42.016;23.098;2022-10-30T12:43:32;97405.59;;;22.74;43.02
7614;BME280;3848;42.016;23.098;2022-10-30T12:46:11;97398.00;;;22.71;43.80
7614;BME280;3848;42.016;23.098;2022-10-30T12:48:45;97403.09;;;22.72;43.38
7614;BME280;3848;42.016;23.098;2022-10-30T12:51:16;97399.75;;;22.70;43.46
7614;BME280;3848;42.016;23.098;2022-10-30T12:53:48;97397.16;;;22.70;44.04
7614;BME280;3848;42.016;23.098;2022-10-30T12:56:23;97391.16;;;22.70;43.96
7614;BME280;3848;42.016;23.098;2022-10-30T12:58:58;97396.91;;;22.75;43.54
7614;BME280;3848;42.016;23.098;2022-10-30T13:01:34;97390.06;;;22.74;43.87
7614;BME280;3848;42.016;23.098;2022-10-30T13:04:07;97391.41;;;22.81;42.61
7614;BME280;3848;42.016;23.098;2022-10-30T13:06:40;97384.31;;;22.85;42.94
7614;BME280;3848;42.016;23.098;2022-10-30T13:09:15;97376.78;;;22.80;43.45
7614;BME280;3848;42.016;23.098;2022-10-30T13:11:50;97377.09;;;22.91;42.92
7614;BME280;3848;42.016;23.098;2022-10-30T13:14:21;97377.13;;;22.90;42.53
7614;BME280;3848;42.016;23.098;2022-10-30T13:16:50;97369.53;;;22.87;42.48
7614;BME280;3848;42.016;23.098;2022-10-30T13:19:17;97378.13;;;22.87;42.91
7614;BME280;3848;42.016;23.098;2022-10-30T13:21:51;97374.63;;;22.88;41.90
7614;BME280;3848;42.016;23.098;2022-10-30T13:24:24;97370.19;;;22.90;43.30
7614;BME280;3848;42.016;23.098;2022-10-30T13:27:03;97370.28;;;22.89;43.32